Time;durP1;ratioP1;P1;durP2;ratioP2;P2;SDS_P1;SDS_P2;PMS_P1;PMS_P2;Temp;Humidity;BMP_temperature;BMP_pressure;BME280_temperature;BME280_humidity;BME280_pressure;Samples;Min_cycle;Max_cycle;Signal;HPM_P1;HPM_P2
2022/09/10 00:00:54;;;;;;;11.82;2.70;;;16.40;99.90;;;;;;5033326;28;20021;-73
2022/09/10 00:03:20;;;;;;;7.53;2.58;;;16.30;99.90;;;;;;5033529;28;20463;-73
2022/09/10 00:05:46;;;;;;;9.80;3.08;;;16.30;99.90;;;;;;5033308;28;20115;-74
2022/09/10 00:08:12;;;;;;;6.95;2.85;;;16.30;99.90;;;;;;5033348;28;20018;-73
2022/09/10 00:10:39;;;;;;;5.57;2.00;;;16.30;99.90;;;;;;5033347;28;20112;-73
2022/09/10 00:13:06;;;;;;;8.18;2.35;;;16.30;99.90;;;;;;5033211;28;20108;-73
2022/09/10 00:15:37;;;;;;;5.50;2.22;;;16.30;99.90;;;;;;5033009;28;20032;-73
2022/09/10 00:18:02;;;;;;;8.48;2.67;;;16.30;99.90;;;;;;5032996;28;20532;-73
2022/09/10 00:20:28;;;;;;;6.13;3.15;;;16.30;99.90;;;;;;5033478;28;20025;-73
2022/09/10 00:22:53;;;;;;;6.22;2.22;;;16.20;99.90;;;;;;5033014;28;20022;-73
2022/09/10 00:25:19;;;;;;;11.75;2.65;;;16.20;99.90;;;;;;5033082;28;20030;-74
2022/09/10 00:27:44;;;;;;;6.88;2.75;;;16.20;99.90;;;;;;5015337;28;20022;-72
2022/09/10 00:30:11;;;;;;;8.20;2.50;;;16.20;99.90;;;;;;5033068;28;20092;-73
2022/09/10 00:32:37;;;;;;;7.35;3.28;;;16.20;99.90;;;;;;5015239;28;20402;-73
2022/09/10 00:35:03;;;;;;;5.70;2.22;;;16.10;99.90;;;;;;5032885;28;20021;-73
2022/09/10 00:37:29;;;;;;;10.68;3.03;;;16.20;99.90;;;;;;5032963;28;20033;-74
2022/09/10 00:39:55;;;;;;;9.40;2.15;;;16.10;99.90;;;;;;5033236;28;20025;-73
2022/09/10 00:42:21;;;;;;;5.40;2.40;;;16.10;99.90;;;;;;5032851;28;20022;-72
2022/09/10 00:44:55;;;;;;;5.78;2.42;;;16.10;99.90;;;;;;5015273;28;20048;-72
2022/09/10 00:47:37;;;;;;;7.90;2.42;;;16.10;99.90;;;;;;5037018;28;20497;-73
2022/09/10 00:50:14;;;;;;;7.18;2.30;;;16.00;99.90;;;;;;5036769;28;20070;-72
2022/09/10 00:52:41;;;;;;;7.97;2.55;;;16.00;99.90;;;;;;5018951;28;20057;-73
2022/09/10 00:55:09;;;;;;;5.13;2.72;;;16.00;99.90;;;;;;5018711;28;20049;-73
2022/09/10 00:57:35;;;;;;;6.15;2.47;;;16.00;99.90;;;;;;5018836;28;20478;-72
2022/09/10 01:00:07;;;;;;;7.18;2.85;;;16.00;99.90;;;;;;5018621;28;20018;-72
2022/09/10 01:02:33;;;;;;;7.90;3.13;;;16.00;99.90;;;;;;5018755;28;20036;-73
2022/09/10 01:05:01;;;;;;;8.60;3.30;;;16.00;99.90;;;;;;5036217;28;20021;-72
2022/09/10 01:07:28;;;;;;;4.10;2.92;;;15.90;99.90;;;;;;5036580;28;20021;-73
2022/09/10 01:10:03;;;;;;;12.38;3.25;;;15.90;99.90;;;;;;5036365;28;20018;-72
2022/09/10 01:13:10;;;;;;;5.13;3.70;;;16.00;99.90;;;;;;5036384;28;20043;-73
2022/09/10 01:15:54;;;;;;;8.65;3.47;;;16.00;99.90;;;;;;4997208;28;20091;-72
2022/09/10 01:18:38;;;;;;;4.55;2.90;;;16.00;99.90;;;;;;5036159;28;20040;-72
2022/09/10 01:21:15;;;;;;;9.50;3.53;;;16.00;99.90;;;;;;5036088;28;20513;-73
2022/09/10 01:24:20;;;;;;;9.23;3.90;;;16.00;99.90;;;;;;5036077;28;20021;-73
2022/09/10 01:27:24;;;;;;;6.78;3.15;;;15.90;99.90;;;;;;5018248;28;20025;-72
2022/09/10 01:29:57;;;;;;;8.65;3.67;;;15.90;99.90;;;;;;5035319;28;20034;-73
2022/09/10 01:32:28;;;;;;;6.68;3.33;;;15.80;99.90;;;;;;5036041;28;20033;-73
2022/09/10 01:34:59;;;;;;;7.45;3.75;;;15.80;99.90;;;;;;5036274;28;20017;-73
2022/09/10 01:37:29;;;;;;;6.50;3.42;;;15.80;99.90;;;;;;5035803;28;20029;-73
2022/09/10 01:39:57;;;;;;;11.48;4.15;;;15.70;99.90;;;;;;5035773;28;20075;-73
2022/09/10 01:42:27;;;;;;;9.82;5.28;;;15.80;99.90;;;;;;5035735;28;20156;-73
2022/09/10 01:44:54;;;;;;;7.88;3.88;;;16.30;99.90;;;;;;5035597;28;20049;-73
2022/09/10 01:47:31;;;;;;;9.23;3.95;;;15.70;99.90;;;;;;5035916;28;20048;-74
2022/09/10 01:50:20;;;;;;;9.25;4.50;;;15.70;99.90;;;;;;5035901;28;20385;-72
2022/09/10 01:53:23;;;;;;;10.00;4.20;;;15.80;99.90;;;;;;5036173;28;20021;-73
2022/09/10 01:56:02;;;;;;;9.45;4.43;;;15.80;99.90;;;;;;5035519;28;20029;-73
2022/09/10 01:58:41;;;;;;;9.75;4.10;;;15.70;99.90;;;;;;5016656;28;20083;-72
2022/09/10 02:01:30;;;;;;;8.85;3.72;;;15.70;99.90;;;;;;5035531;28;20037;-73
2022/09/10 02:03:58;;;;;;;;;;;15.70;99.90;;;;;;5035996;28;20467;-73
2022/09/10 02:06:28;;;;;;;7.13;3.95;;;15.70;99.90;;;;;;5035206;28;19911;-73
2022/09/10 02:08:55;;;;;;;10.10;4.70;;;15.70;99.90;;;;;;5017591;28;20026;-73
2022/09/10 02:11:22;;;;;;;7.80;4.45;;;15.70;99.90;;;;;;5035234;28;20388;-73
2022/09/10 02:13:48;;;;;;;8.88;4.65;;;15.70;99.90;;;;;;5017331;28;20124;-73
2022/09/10 02:16:27;;;;;;;7.80;4.88;;;15.80;99.90;;;;;;5035308;28;20060;-73
2022/09/10 02:18:55;;;;;;;9.13;5.05;;;15.70;99.90;;;;;;5035677;28;20106;-73
2022/09/10 02:21:22;;;;;;;7.70;5.05;;;15.70;99.90;;;;;;5034841;28;20026;-72
2022/09/10 02:23:56;;;;;;;14.88;6.75;;;15.80;99.90;;;;;;5034781;28;20364;-72
2022/09/10 02:26:24;;;;;;;8.98;6.07;;;15.80;99.90;;;;;;5035728;28;20470;-74
2022/09/10 02:28:50;;;;;;;11.75;6.40;;;15.80;99.90;;;;;;5034914;28;20045;-74
2022/09/10 02:31:17;;;;;;;12.27;7.47;;;15.80;99.90;;;;;;5034691;28;20030;-74
2022/09/10 02:33:43;;;;;;;14.80;7.93;;;16.20;99.90;;;;;;5034725;28;20044;-74
2022/09/10 02:36:08;;;;;;;13.65;7.25;;;15.90;99.90;;;;;;5034846;28;20029;-74
2022/09/10 02:38:34;;;;;;;13.13;7.57;;;15.90;99.90;;;;;;5034639;28;20021;-75
2022/09/10 02:41:00;;;;;;;14.35;8.32;;;15.90;99.90;;;;;;5034771;28;20419;-75
2022/09/10 02:43:26;;;;;;;13.65;7.93;;;15.90;99.90;;;;;;5034572;28;20032;-75
2022/09/10 02:45:56;;;;;;;12.30;7.95;;;16.00;99.90;;;;;;5034484;28;20356;-74
2022/09/10 02:48:24;;;;;;;11.55;7.53;;;15.90;99.90;;;;;;5034607;28;20025;-75
2022/09/10 02:50:51;;;;;;;13.00;7.40;;;15.90;99.90;;;;;;5016927;28;20021;-74
2022/09/10 02:53:16;;;;;;;14.30;7.63;;;15.90;99.90;;;;;;5016714;28;20487;-74
2022/09/10 02:55:45;;;;;;;10.85;7.68;;;16.00;99.90;;;;;;5034863;28;20018;-74
2022/09/10 02:58:12;;;;;;;12.07;7.28;;;16.00;99.90;;;;;;5016569;28;20466;-75
2022/09/10 03:00:38;;;;;;;13.52;7.20;;;16.00;99.90;;;;;;5016861;28;20434;-75
2022/09/10 03:03:04;;;;;;;11.73;7.60;;;16.00;99.90;;;;;;5016477;28;20394;-73
2022/09/10 03:05:29;;;;;;;15.38;7.93;;;16.00;99.90;;;;;;5034012;28;20026;-75
2022/09/10 03:07:56;;;;;;;10.85;6.97;;;16.00;99.90;;;;;;5033884;28;20482;-74
2022/09/10 03:10:22;;;;;;;14.00;7.68;;;16.00;99.90;;;;;;5016478;28;20018;-74
2022/09/10 03:12:48;;;;;;;12.38;7.47;;;16.00;99.90;;;;;;5016199;28;20033;-74
2022/09/10 03:15:13;;;;;;;10.93;7.15;;;16.20;99.90;;;;;;5016242;28;20116;-73
2022/09/10 03:17:39;;;;;;;12.75;7.78;;;16.00;99.90;;;;;;5016355;28;20049;-73
2022/09/10 03:20:05;;;;;;;15.02;7.90;;;16.10;99.90;;;;;;5034066;28;20076;-74
2022/09/10 03:22:31;;;;;;;13.60;7.50;;;16.00;99.90;;;;;;5033977;28;20028;-74
2022/09/10 03:24:57;;;;;;;11.15;7.50;;;16.00;99.90;;;;;;5034031;28;20370;-74
2022/09/10 03:27:24;;;;;;;14.20;8.93;;;16.00;99.90;;;;;;5034173;28;20052;-74
2022/09/10 03:29:49;;;;;;;12.90;8.80;;;16.00;99.90;;;;;;5034376;28;20021;-73
2022/09/10 03:32:15;;;;;;;14.43;8.60;;;16.00;99.90;;;;;;5033997;28;20601;-74
2022/09/10 03:34:41;;;;;;;10.30;7.15;;;16.00;99.90;;;;;;5016341;28;20029;-73
2022/09/10 03:37:06;;;;;;;11.85;7.65;;;16.00;99.90;;;;;;5015918;28;20108;-75
2022/09/10 03:39:32;;;;;;;10.90;6.43;;;16.00;99.90;;;;;;5033771;28;20382;-74
2022/09/10 03:41:57;;;;;;;11.93;7.75;;;16.10;99.90;;;;;;5033496;28;20022;-74
2022/09/10 03:44:23;;;;;;;12.88;7.35;;;16.10;99.90;;;;;;5033753;28;20486;-74
2022/09/10 03:46:50;;;;;;;14.73;8.23;;;16.10;99.90;;;;;;5015794;28;20426;-74
2022/09/10 03:49:16;;;;;;;13.60;8.10;;;16.10;99.90;;;;;;5033703;28;20104;-74
2022/09/10 03:51:41;;;;;;;14.15;7.90;;;16.10;99.90;;;;;;5015680;28;20364;-74
2022/09/10 03:54:07;;;;;;;13.75;8.60;;;16.20;99.90;;;;;;5033295;28;20071;-74
2022/09/10 03:56:33;;;;;;;11.27;7.80;;;16.20;99.90;;;;;;5033573;28;20037;-75
2022/09/10 03:58:59;;;;;;;12.00;8.32;;;16.10;99.90;;;;;;5033347;28;20091;-74
2022/09/10 04:01:25;;;;;;;11.57;8.35;;;16.10;99.90;;;;;;5033297;28;20025;-75
2022/09/10 04:03:55;;;;;;;12.30;8.35;;;16.10;99.90;;;;;;5033331;28;20557;-75
2022/09/10 04:06:21;;;;;;;11.45;7.13;;;16.10;99.90;;;;;;5015519;28;20083;-74
2022/09/10 04:08:53;;;;;;;12.13;7.88;;;16.50;99.90;;;;;;5033791;28;20018;-74
2022/09/10 04:11:19;;;;;;;11.57;7.82;;;16.10;99.90;;;;;;5033251;28;20029;-73
2022/09/10 04:13:47;;;;;;;14.55;8.05;;;16.20;99.90;;;;;;5033034;28;20407;-74
2022/09/10 04:16:15;;;;;;;13.15;8.82;;;16.20;99.90;;;;;;5015387;28;20399;-74
2022/09/10 04:18:40;;;;;;;14.65;8.45;;;16.10;99.90;;;;;;5033425;28;20097;-74
2022/09/10 04:21:06;;;;;;;12.93;8.40;;;16.10;99.90;;;;;;5034986;28;20103;-74
2022/09/10 04:23:32;;;;;;;12.60;8.05;;;16.20;99.90;;;;;;5037287;28;20025;-74
2022/09/10 04:25:57;;;;;;;10.98;7.63;;;16.10;99.90;;;;;;5037041;28;20029;-74
2022/09/10 04:28:23;;;;;;;13.32;8.43;;;16.10;99.90;;;;;;5019414;28;20113;-74
2022/09/10 04:30:50;;;;;;;13.13;8.43;;;16.20;99.90;;;;;;5037021;28;20010;-74
2022/09/10 04:33:15;;;;;;;11.77;7.22;;;16.20;99.90;;;;;;5037182;28;20025;-74
2022/09/10 04:35:42;;;;;;;12.68;7.82;;;16.20;99.90;;;;;;5037340;28;20108;-74
2022/09/10 04:38:08;;;;;;;11.35;7.72;;;16.20;99.90;;;;;;5036855;28;20030;-74
2022/09/10 04:40:34;;;;;;;15.93;8.48;;;16.20;99.90;;;;;;5036835;28;20075;-74
2022/09/10 04:43:00;;;;;;;11.32;7.20;;;16.20;99.90;;;;;;5036754;28;20073;-74
2022/09/10 04:45:25;;;;;;;10.27;7.20;;;16.20;99.90;;;;;;5036676;28;20033;-74
2022/09/10 04:47:53;;;;;;;12.43;6.32;;;16.10;99.90;;;;;;5036895;28;20014;-74
2022/09/10 04:50:19;;;;;;;9.60;6.38;;;16.10;99.90;;;;;;5019009;28;20025;-75
2022/09/10 04:52:44;;;;;;;10.43;6.97;;;16.10;99.90;;;;;;5018844;28;20029;-73
2022/09/10 04:55:10;;;;;;;10.65;6.65;;;16.10;99.90;;;;;;5018837;28;20391;-73
2022/09/10 04:57:36;;;;;;;10.90;5.93;;;16.10;99.90;;;;;;5036512;28;20391;-74
2022/09/10 05:00:08;;;;;;;12.05;6.35;;;16.10;99.90;;;;;;5036383;28;20028;-74
2022/09/10 05:02:36;;;;;;;10.05;5.70;;;16.00;99.90;;;;;;5018629;28;20494;-73
2022/09/10 05:05:02;;;;;;;8.93;5.53;;;16.10;99.90;;;;;;5018624;28;20076;-73
2022/09/10 05:07:28;;;;;;;9.85;5.88;;;16.00;99.90;;;;;;5018594;28;20029;-73
2022/09/10 05:09:54;;;;;;;11.25;5.90;;;16.00;99.90;;;;;;5036157;28;20022;-73
2022/09/10 05:12:19;;;;;;;11.95;5.63;;;16.00;99.90;;;;;;5044959;22;20041;-73
2022/09/10 05:14:45;;;;;;;11.32;4.93;;;16.00;99.90;;;;;;5036202;28;20029;-74
2022/09/10 05:17:10;;;;;;;11.35;5.35;;;16.00;99.90;;;;;;5036442;28;20052;-73
2022/09/10 05:19:36;;;;;;;9.68;5.82;;;16.10;99.90;;;;;;5036130;28;20035;-74
2022/09/10 05:22:08;;;;;;;10.38;5.32;;;16.10;99.90;;;;;;5036325;28;20076;-73
2022/09/10 05:24:34;;;;;;;10.73;5.32;;;16.10;99.90;;;;;;5035975;28;20022;-73
2022/09/10 05:26:59;;;;;;;8.73;5.10;;;16.10;99.90;;;;;;5036262;28;20022;-73
2022/09/10 05:29:26;;;;;;;7.78;5.57;;;16.10;99.90;;;;;;5035804;28;20022;-73
2022/09/10 05:31:51;;;;;;;9.35;6.10;;;16.10;99.90;;;;;;5035973;28;20052;-73
2022/09/10 05:34:17;;;;;;;12.70;6.30;;;16.10;99.90;;;;;;5018167;28;20055;-73
2022/09/10 05:36:42;;;;;;;14.73;6.25;;;16.10;99.90;;;;;;5035756;28;20022;-74
2022/09/10 05:39:08;;;;;;;9.65;5.65;;;16.10;99.90;;;;;;5036179;28;20049;-73
2022/09/10 05:41:34;;;;;;;11.98;6.57;;;16.10;99.90;;;;;;5017899;28;20033;-73
2022/09/10 05:43:59;;;;;;;9.38;6.55;;;16.00;99.90;;;;;;5035902;28;20033;-73
2022/09/10 05:46:25;;;;;;;13.10;6.10;;;16.00;99.90;;;;;;5035939;28;20022;-74
2022/09/10 05:48:54;;;;;;;14.82;7.20;;;16.00;99.90;;;;;;5035688;28;20017;-73
2022/09/10 05:51:20;;;;;;;13.00;7.05;;;16.10;99.90;;;;;;5035622;28;20394;-73
2022/09/10 05:53:46;;;;;;;12.85;7.40;;;16.10;99.90;;;;;;5017977;28;20107;-73
2022/09/10 05:56:11;;;;;;;14.63;7.40;;;16.10;99.90;;;;;;5035988;28;20462;-73
2022/09/10 05:58:37;;;;;;;11.35;7.22;;;16.10;99.90;;;;;;5035612;28;20080;-73
2022/09/10 06:01:02;;;;;;;13.30;7.55;;;16.10;99.90;;;;;;5017500;28;20022;-74
2022/09/10 06:03:28;;;;;;;14.98;7.85;;;16.10;99.90;;;;;;5035563;28;20100;-75
2022/09/10 06:05:54;;;;;;;18.58;7.88;;;16.30;99.90;;;;;;5017483;28;20026;-75
2022/09/10 06:08:21;;;;;;;12.45;7.25;;;16.20;99.90;;;;;;5035865;28;20021;-75
2022/09/10 06:10:57;;;;;;;11.98;7.95;;;16.20;99.90;;;;;;5035408;28;20033;-76
2022/09/10 06:13:23;;;;;;;14.60;8.13;;;16.30;99.90;;;;;;5035135;28;20505;-76
2022/09/10 06:15:49;;;;;;;14.00;8.43;;;16.30;99.90;;;;;;5017236;28;20021;-76
2022/09/10 06:18:15;;;;;;;9.20;6.93;;;16.40;99.90;;;;;;5035332;28;20021;-76
2022/09/10 06:20:40;;;;;;;14.93;7.40;;;16.60;99.90;;;;;;5017238;28;20018;-75
2022/09/10 06:23:06;;;;;;;16.58;8.63;;;16.50;99.90;;;;;;5034996;28;20083;-76
2022/09/10 06:25:31;;;;;;;12.85;7.35;;;16.60;99.90;;;;;;5035593;28;20026;-77
2022/09/10 06:27:57;;;;;;;14.23;8.57;;;16.80;99.90;;;;;;5035742;28;20025;-77
2022/09/10 06:30:22;;;;;;;12.07;8.10;;;16.70;99.90;;;;;;5017251;28;20022;-76
2022/09/10 06:32:48;;;;;;;14.68;8.20;;;16.80;99.90;;;;;;5034955;28;20479;-76
2022/09/10 06:35:14;;;;;;;14.93;8.63;;;16.90;99.90;;;;;;5034679;28;20083;-76
2022/09/10 06:37:39;;;;;;;17.30;7.72;;;16.90;99.90;;;;;;5034736;28;20029;-77
2022/09/10 06:40:06;;;;;;;13.63;7.88;;;16.90;99.90;;;;;;5034703;28;20111;-76
2022/09/10 06:42:31;;;;;;;16.50;7.20;;;16.80;99.90;;;;;;5034654;28;20026;-76
2022/09/10 06:44:58;;;;;;;14.93;8.00;;;16.80;99.90;;;;;;5034092;28;20017;-77
2022/09/10 06:47:25;;;;;;;12.68;7.43;;;16.90;99.90;;;;;;5035013;28;20025;-76
2022/09/10 06:49:51;;;;;;;11.93;8.10;;;16.90;99.90;;;;;;5034428;28;20036;-76
2022/09/10 06:52:16;;;;;;;13.48;8.50;;;16.90;99.90;;;;;;5034560;28;20100;-76
2022/09/10 06:54:42;;;;;;;10.20;7.10;;;17.00;99.90;;;;;;5034766;28;20041;-76
2022/09/10 06:57:08;;;;;;;11.90;7.90;;;17.00;99.90;;;;;;5016698;28;20367;-76
2022/09/10 06:59:33;;;;;;;14.85;8.20;;;17.00;99.90;;;;;;5016628;28;20028;-76
2022/09/10 07:02:00;;;;;;;13.20;7.38;;;17.10;99.90;;;;;;5034184;28;20017;-76
2022/09/10 07:04:26;;;;;;;9.75;7.22;;;17.20;99.90;;;;;;5033962;28;20100;-77
2022/09/10 07:06:52;;;;;;;13.65;6.43;;;17.20;99.90;;;;;;5034477;28;20056;-77
2022/09/10 07:09:18;;;;;;;9.52;6.82;;;17.30;99.90;;;;;;5016271;28;20025;-74
2022/09/10 07:11:43;;;;;;;11.38;6.78;;;17.40;99.90;;;;;;5016343;28;20073;-76
2022/09/10 07:14:11;;;;;;;11.38;6.70;;;17.30;99.90;;;;;;5033877;28;20033;-76
2022/09/10 07:16:40;;;;;;;13.50;5.88;;;17.30;99.90;;;;;;5034027;28;20544;-76
2022/09/10 07:19:06;;;;;;;11.55;6.10;;;17.40;99.90;;;;;;5034240;28;20022;-76
2022/09/10 07:21:36;;;;;;;8.20;6.30;;;17.30;99.90;;;;;;5034010;28;20061;-76
2022/09/10 07:24:04;;;;;;;11.32;6.63;;;17.30;99.90;;;;;;5033961;28;20025;-77
2022/09/10 07:26:30;;;;;;;14.73;6.37;;;17.40;99.90;;;;;;5033738;28;20056;-76
2022/09/10 07:28:57;;;;;;;8.93;6.30;;;17.50;99.90;;;;;;5033996;28;20427;-76
2022/09/10 07:31:32;;;;;;;9.63;6.32;;;17.60;99.90;;;;;;5033672;28;20021;-76
2022/09/10 07:33:59;;;;;;;9.63;6.40;;;17.70;99.90;;;;;;5033776;28;20022;-77
2022/09/10 07:36:26;;;;;;;9.43;5.40;;;17.90;99.90;;;;;;5033861;28;20021;-77
2022/09/10 07:38:54;;;;;;;8.73;4.72;;;18.00;99.90;;;;;;5033890;28;20395;-77
2022/09/10 07:41:20;;;;;;;6.05;4.25;;;18.10;99.90;;;;;;5033468;28;20021;-74
2022/09/10 07:43:45;;;;;;;8.45;4.57;;;18.10;99.90;;;;;;5033741;28;20047;-74
2022/09/10 07:46:18;;;;;;;8.65;4.10;;;18.40;99.90;;;;;;5033384;28;20032;-74
2022/09/10 07:48:43;;;;;;;10.80;5.05;;;18.10;99.90;;;;;;5015916;28;20026;-74
2022/09/10 07:51:10;;;;;;;7.60;5.13;;;18.20;99.90;;;;;;5015727;28;20026;-74
2022/09/10 07:53:37;;;;;;;7.10;4.43;;;18.20;99.90;;;;;;5033602;28;20502;-74
2022/09/10 07:56:06;;;;;;;10.90;5.32;;;18.20;99.90;;;;;;5032716;28;20022;-74
2022/09/10 07:58:34;;;;;;;5.40;4.00;;;18.30;99.90;;;;;;5015455;28;20033;-74
2022/09/10 08:01:01;;;;;;;11.57;3.90;;;18.40;99.90;;;;;;5033348;28;20068;-74
2022/09/10 08:03:28;;;;;;;9.07;3.67;;;18.50;99.90;;;;;;5015993;28;20112;-74
2022/09/10 08:05:54;;;;;;;8.40;3.80;;;18.60;99.90;;;;;;5033198;28;20040;-74
2022/09/10 08:08:20;;;;;;;7.53;3.30;;;18.70;99.90;;;;;;5033731;28;20018;-74
2022/09/10 08:10:47;;;;;;;7.63;4.47;;;18.70;99.90;;;;;;5033017;28;20026;-74
2022/09/10 08:13:13;;;;;;;5.65;4.25;;;18.60;99.90;;;;;;5032970;28;20033;-74
2022/09/10 08:15:43;;;;;;;7.97;4.00;;;18.60;99.90;;;;;;5015347;28;20033;-74
2022/09/10 08:18:10;;;;;;;6.85;4.40;;;18.50;99.90;;;;;;5015339;28;20434;-74
2022/09/10 08:20:37;;;;;;;6.53;3.83;;;18.60;99.90;;;;;;5033149;28;20387;-74
2022/09/10 08:23:03;;;;;;;6.53;3.30;;;18.60;99.90;;;;;;5032994;28;20025;-74
2022/09/10 08:25:29;;;;;;;9.77;3.75;;;18.60;99.90;;;;;;5032899;28;20028;-74
2022/09/10 08:27:56;;;;;;;4.80;3.50;;;18.60;99.90;;;;;;5033219;28;20028;-74
2022/09/10 08:30:22;;;;;;;8.80;3.38;;;18.70;99.90;;;;;;5015175;28;20018;-74
2022/09/10 08:32:48;;;;;;;7.35;3.05;;;18.70;99.90;;;;;;5015827;28;20079;-74
2022/09/10 08:35:13;;;;;;;9.50;3.72;;;18.70;99.90;;;;;;5033116;28;20100;-74
2022/09/10 08:37:39;;;;;;;6.75;2.90;;;18.70;99.90;;;;;;5033244;28;20021;-73
2022/09/10 08:40:06;;;;;;;4.00;2.88;;;18.70;99.90;;;;;;5032864;28;20056;-75
2022/09/10 08:42:48;;;;;;;6.55;3.08;;;18.70;99.90;;;;;;5014865;28;20083;-75
2022/09/10 08:45:22;;;;;;;5.88;3.03;;;18.90;99.90;;;;;;5015069;28;20383;-75
2022/09/10 08:48:29;;;;;;;5.80;2.90;;;19.00;99.90;;;;;;5033424;28;20026;-75
2022/09/10 08:50:57;;;;;;;5.07;2.70;;;19.20;99.90;;;;;;4953534;29;20023;-75
2022/09/10 08:53:30;;;;;;;6.63;2.78;;;19.40;99.90;;;;;;4952852;29;20604;-75
2022/09/10 08:56:04;;;;;;;4.85;2.53;;;19.50;99.90;;;;;;4996646;28;20034;-75
2022/09/10 08:58:48;;;;;;;7.35;2.28;;;19.60;99.90;;;;;;5033077;28;20390;-76
2022/09/10 09:01:24;;;;;;;6.75;2.20;;;19.60;99.90;;;;;;5032973;28;20099;-75
2022/09/10 09:03:53;;;;;;;4.15;2.53;;;19.60;99.90;;;;;;5033077;28;20049;-75
2022/09/10 09:06:30;;;;;;;5.13;2.85;;;19.50;99.90;;;;;;5033516;28;20096;-75
2022/09/10 09:09:00;;;;;;;8.18;3.50;;;19.50;99.90;;;;;;5036988;28;20040;-77
2022/09/10 09:11:44;;;;;;;7.15;3.78;;;19.40;99.90;;;;;;5037159;28;20049;-77
2022/09/10 09:14:28;;;;;;;7.57;4.10;;;19.40;99.90;;;;;;5037330;28;20043;-77
2022/09/10 09:16:53;;;;;;;8.30;3.83;;;19.50;99.90;;;;;;5019752;28;20053;-77
2022/09/10 09:19:33;;;;;;;6.72;3.45;;;19.70;99.90;;;;;;5019595;28;20500;-77
2022/09/10 09:22:20;;;;;;;4.95;2.83;;;19.80;99.90;;;;;;5019334;28;20497;-77
2022/09/10 09:24:51;;;;;;;2.28;1.75;;;20.00;99.90;;;;;;5036980;28;20014;-77
2022/09/10 09:27:18;;;;;;;5.55;1.70;;;20.30;99.90;;;;;;5019483;28;20171;-77
2022/09/10 09:29:55;;;;;;;7.07;1.52;;;20.50;99.90;;;;;;5019328;28;20108;-77
2022/09/10 09:32:22;;;;;;;6.50;1.23;;;20.80;99.90;;;;;;5036833;28;20037;-77
2022/09/10 09:34:59;;;;;;;3.47;0.73;;;21.10;99.90;;;;;;5037237;28;20113;-79
2022/09/10 09:37:28;;;;;;;4.43;1.10;;;21.70;99.90;;;;;;5037461;28;20032;-77
2022/09/10 09:40:12;;;;;;;2.28;0.25;;;22.10;99.90;;;;;;5036910;28;20071;-77
2022/09/10 09:42:46;;;;;;;0.70;0.25;;;21.90;99.90;;;;;;5037133;28;20029;-77
2022/09/10 09:45:22;;;;;;;0.70;0.40;;;21.50;99.90;;;;;;5036445;28;20017;-77
2022/09/10 09:47:51;;;;;;;2.25;0.40;;;21.10;99.90;;;;;;5037219;28;20033;-77
2022/09/10 09:50:20;;;;;;;2.33;0.57;;;20.70;99.90;;;;;;5036625;28;20103;-78
2022/09/10 09:52:46;;;;;;;2.28;0.45;;;20.40;99.90;;;;;;5036575;28;20509;-77
2022/09/10 09:55:33;;;;;;;1.75;0.82;;;20.30;99.90;;;;;;5018692;28;20463;-77
2022/09/10 09:58:20;;;;;;;0.80;0.30;;;20.00;99.90;;;;;;5036423;28;20522;-77
2022/09/10 10:00:52;;;;;;;1.40;0.28;;;19.70;99.90;;;;;;5018631;28;20112;-77
2022/09/10 10:03:27;;;;;;;1.58;0.30;;;19.70;99.90;;;;;;5036227;28;20075;-77
2022/09/10 10:06:07;;;;;;;0.03;0.00;;;19.70;99.90;;;;;;5036537;28;20171;-78
2022/09/10 10:08:55;;;;;;;0.50;0.00;;;19.80;99.90;;;;;;5036441;28;20048;-77
2022/09/10 10:11:41;;;;;;;;;;;20.20;99.90;;;;;;5018842;28;20467;-76
2022/09/10 10:14:20;;;;;;;0.50;0.08;;;20.20;99.90;;;;;;5033796;28;19913;-77
2022/09/10 10:16:47;;;;;;;1.80;0.35;;;20.60;99.90;;;;;;5034935;28;20143;-77
2022/09/10 10:19:37;;;;;;;1.30;0.57;;;20.70;99.90;;;;;;5033698;28;20418;-77
2022/09/10 10:22:18;;;;;;;1.15;0.68;;;20.70;99.90;;;;;;5032253;28;20028;-77
2022/09/10 10:24:45;;;;;;;0.98;0.70;;;20.60;99.90;;;;;;5014444;28;20032;-77
2022/09/10 10:27:34;;;;;;;4.05;2.22;;;20.50;99.90;;;;;;5032417;28;20034;-76
2022/09/10 10:30:20;;;;;;;5.00;2.85;;;20.30;99.90;;;;;;5033243;28;20099;-77
2022/09/10 10:32:57;;;;;;;4.80;3.50;;;20.10;99.90;;;;;;5032753;28;20017;-77
2022/09/10 10:35:52;;;;;;;8.25;3.97;;;19.90;99.90;;;;;;5033102;28;20034;-76
2022/09/10 10:38:27;;;;;;;6.60;3.38;;;20.00;99.90;;;;;;5016462;28;20498;-77
2022/09/10 10:41:32;;;;;;;4.53;2.95;;;20.30;99.90;;;;;;5034373;28;20378;-76
2022/09/10 10:44:06;;;;;;;5.38;3.72;;;20.30;99.90;;;;;;4993745;28;20116;-76
2022/09/10 10:46:38;;;;;;;4.55;3.63;;;20.20;99.90;;;;;;5033136;28;20033;-76
2022/09/10 10:49:31;;;;;;;4.40;3.17;;;20.20;99.90;;;;;;5015822;28;20064;-76
2022/09/10 10:52:27;;;;;;;2.88;2.60;;;20.30;99.90;;;;;;5033579;28;20021;-76
2022/09/10 10:55:22;;;;;;;4.07;2.70;;;20.50;99.90;;;;;;5015452;28;20021;-75
2022/09/10 10:58:06;;;;;;;4.00;2.70;;;20.80;99.90;;;;;;5016119;28;20052;-76
2022/09/10 11:00:41;;;;;;;3.75;2.70;;;21.10;99.90;;;;;;5033724;28;20431;-76
2022/09/10 11:03:20;;;;;;;3.55;1.58;;;21.40;99.90;;;;;;5033244;28;20095;-76
2022/09/10 11:05:54;;;;;;;1.55;0.90;;;21.50;99.90;;;;;;5015339;28;20029;-76
2022/09/10 11:08:25;;;;;;;1.55;1.08;;;21.70;99.90;;;;;;5033373;28;20093;-76
2022/09/10 11:11:04;;;;;;;2.28;1.23;;;22.00;99.90;;;;;;5034052;28;20483;-76
2022/09/10 11:13:38;;;;;;;3.22;1.55;;;22.40;99.90;;;;;;4965377;28;1075652;-76
2022/09/10 11:16:36;;;;;;;1.75;0.52;;;22.50;99.90;;;;;;5014139;28;20490;-76
2022/09/10 11:19:12;;;;;;;1.33;0.47;;;22.70;99.90;;;;;;5016290;28;20025;-76
2022/09/10 11:22:13;;;;;;;2.78;0.40;;;23.20;99.90;;;;;;5033225;28;20025;-77
2022/09/10 11:24:53;;;;;;;1.00;0.30;;;23.40;99.90;;;;;;5022428;28;20087;-77
2022/09/10 11:27:28;;;;;;;1.30;0.10;;;23.30;99.90;;;;;;5016610;28;20014;-76
2022/09/10 11:30:03;;;;;;;0.32;0.17;;;23.10;99.90;;;;;;5034394;28;20037;-77
2022/09/10 11:32:38;;;;;;;0.10;0.03;;;22.80;99.90;;;;;;5033827;28;20025;-77
2022/09/10 11:35:09;;;;;;;0.98;0.00;;;22.70;99.90;;;;;;5033839;28;20029;-77
2022/09/10 11:37:59;;;;;;;1.55;0.05;;;23.00;99.90;;;;;;5033932;28;20029;-77
2022/09/10 11:40:42;;;;;;;0.13;0.05;;;23.60;99.90;;;;;;5016421;28;20075;-77
2022/09/10 11:43:18;;;;;;;0.55;0.00;;;23.70;99.90;;;;;;5033764;28;20389;-76
2022/09/10 11:45:53;;;;;;;1.13;0.08;;;23.60;99.90;;;;;;5015586;28;20104;-76
2022/09/10 11:48:43;;;;;;;1.45;0.10;;;23.30;99.90;;;;;;5033331;28;20032;-76
2022/09/10 11:51:11;;;;;;;1.98;0.68;;;22.50;99.90;;;;;;5033259;28;20026;-76
2022/09/10 11:53:37;;;;;;;1.95;0.45;;;22.00;99.90;;;;;;5033678;28;20029;-76
2022/09/10 11:56:08;;;;;;;1.20;1.00;;;21.50;99.90;;;;;;5033662;28;20113;-76
2022/09/10 11:58:52;;;;;;;0.50;0.30;;;21.20;99.90;;;;;;5033785;28;20040;-77
2022/09/10 12:01:55;;;;;;;1.38;0.88;;;20.90;99.90;;;;;;5033689;28;20030;-76
2022/09/10 12:04:46;;;;;;;1.10;0.68;;;20.60;99.90;;;;;;5015713;28;20113;-76
2022/09/10 12:07:32;;;;;;;0.55;0.55;;;20.60;99.90;;;;;;5033292;28;20071;-77
2022/09/10 12:10:04;;;;;;;0.55;0.30;;;21.10;99.90;;;;;;5015474;28;20018;-77
2022/09/10 12:12:39;;;;;;;0.50;0.00;;;21.60;99.90;;;;;;5033231;28;20049;-76
2022/09/10 12:15:33;;;;;;;0.80;0.20;;;21.90;99.90;;;;;;5033086;28;20033;-76
2022/09/10 12:18:27;;;;;;;2.95;0.77;;;21.90;99.90;;;;;;5013052;28;20037;-76
2022/09/10 12:20:55;;;;;;;0.70;0.20;;;21.70;99.90;;;;;;5033208;28;20104;-76
2022/09/10 12:23:31;;;;;;;0.80;0.20;;;21.50;99.90;;;;;;5015545;28;20033;-76
2022/09/10 12:26:00;;;;;;;0.95;0.10;;;21.20;99.90;;;;;;5033113;28;20017;-76
2022/09/10 12:28:41;;;;;;;3.15;0.40;;;21.10;99.90;;;;;;5033044;28;20108;-77
2022/09/10 12:31:08;;;;;;;2.00;0.35;;;21.00;99.90;;;;;;5033046;28;20022;-76
2022/09/10 12:33:42;;;;;;;1.08;0.68;;;20.80;99.90;;;;;;5015203;28;20030;-77
2022/09/10 12:36:15;;;;;;;2.38;0.52;;;20.80;99.90;;;;;;5033522;28;20387;-77
2022/09/10 12:39:05;;;;;;;0.93;0.43;;;21.20;99.90;;;;;;5033784;28;20022;-79
2022/09/10 12:41:31;;;;;;;1.08;0.88;;;21.60;99.90;;;;;;5034652;28;20399;-77
2022/09/10 12:43:58;;;;;;;2.03;0.70;;;21.70;99.90;;;;;;5019929;28;20022;-77
2022/09/10 12:46:25;;;;;;;1.05;0.30;;;21.50;99.90;;;;;;5037376;28;20033;-77
2022/09/10 12:49:08;;;;;;;2.17;0.90;;;21.70;99.90;;;;;;5037373;28;20052;-77
2022/09/10 12:51:56;;;;;;;2.50;0.40;;;22.10;99.90;;;;;;5037860;28;20052;-77
2022/09/10 12:55:14;;;;;;;1.85;0.70;;;22.90;99.90;;;;;;5036963;28;20026;-77
2022/09/10 12:57:39;;;;;;;;;;;23.60;99.90;;;;;;5013654;28;20371;-77
2022/09/10 13:00:11;;;;;;;0.45;0.25;;;23.50;99.90;;;;;;5037603;28;19909;-77
2022/09/10 13:02:53;;;;;;;1.88;0.52;;;23.70;99.90;;;;;;5037110;28;20060;-77
2022/09/10 13:05:25;;;;;;;1.45;0.35;;;24.30;99.90;;;;;;5037003;28;20472;-77